createdAt,value
2018-12-26T00:00:56.245Z,4.67
2018-12-26T00:03:26.751Z,4.67
2018-12-26T00:05:57.353Z,5.17
2018-12-26T00:08:27.816Z,5.13
2018-12-26T00:10:58.208Z,5.10
2018-12-26T00:13:29.167Z,4.93
2018-12-26T00:15:59.655Z,5.30
2018-12-26T00:18:30.166Z,6.27
2018-12-26T00:21:00.583Z,4.90
2018-12-26T00:23:31.126Z,5.13
2018-12-26T00:26:02.094Z,4.90
2018-12-26T00:28:32.556Z,4.93
2018-12-26T00:31:02.957Z,5.00
2018-12-26T00:33:33.452Z,4.87
2018-12-26T00:36:04.023Z,4.77
2018-12-26T00:38:35.135Z,5.33
2018-12-26T00:41:05.520Z,5.10
2018-12-26T00:43:36.305Z,5.67
2018-12-26T00:46:06.869Z,5.27
2018-12-26T00:48:37.405Z,5.17
2018-12-26T00:51:07.894Z,5.30
2018-12-26T00:53:38.371Z,5.70
2018-12-26T00:56:10.626Z,5.27
2018-12-26T00:58:41.003Z,5.20
2018-12-26T01:01:11.416Z,5.50
2018-12-26T01:03:42.161Z,5.07
2018-12-26T01:06:12.754Z,5.30
2018-12-26T01:08:43.410Z,6.13
2018-12-26T01:11:14.012Z,5.27
2018-12-26T01:13:44.876Z,7.10
2018-12-26T01:16:15.461Z,5.00
2018-12-26T01:18:46.035Z,4.70
2018-12-26T01:21:17.084Z,4.87
2018-12-26T01:23:47.600Z,4.97
2018-12-26T01:26:19.280Z,5.70
2018-12-26T01:28:49.875Z,5.27
2018-12-26T01:31:20.375Z,5.70
2018-12-26T01:33:50.778Z,4.87
2018-12-26T01:36:21.204Z,5.93
2018-12-26T01:38:51.759Z,5.63
2018-12-26T01:41:22.239Z,5.83
2018-12-26T01:43:52.687Z,5.53
2018-12-26T01:46:23.484Z,5.43
2018-12-26T01:48:53.935Z,6.33
2018-12-26T01:51:24.453Z,5.50
2018-12-26T01:53:54.933Z,7.00
2018-12-26T01:56:28.021Z,5.00
2018-12-26T01:58:57.663Z,5.63
2018-12-26T02:01:28.092Z,5.43
2018-12-26T02:03:58.584Z,6.03
2018-12-26T02:06:29.152Z,5.47
2018-12-26T02:08:59.603Z,6.40
2018-12-26T02:11:30.028Z,6.03
2018-12-26T02:14:00.496Z,5.13
2018-12-26T02:16:32.267Z,6.50
2018-12-26T02:19:02.677Z,6.10
2018-12-26T02:21:33.158Z,5.97
2018-12-26T02:24:03.795Z,6.43
2018-12-26T02:26:36.519Z,5.37
2018-12-26T02:29:09.528Z,6.37
2018-12-26T02:31:40.171Z,6.23
2018-12-26T02:34:14.258Z,4.93
2018-12-26T02:36:44.819Z,6.50
2018-12-26T02:39:15.510Z,4.80
2018-12-26T02:41:46.157Z,5.63
2018-12-26T02:44:17.249Z,6.17
2018-12-26T02:46:49.345Z,6.80
2018-12-26T02:49:19.874Z,6.90
2018-12-26T02:51:50.450Z,4.83
2018-12-26T02:54:20.913Z,5.50
2018-12-26T02:56:51.704Z,4.90
2018-12-26T02:59:22.277Z,5.30
2018-12-26T03:01:53.240Z,6.20
2018-12-26T03:04:24.178Z,4.97
2018-12-26T03:06:55.097Z,5.97
2018-12-26T03:09:26.135Z,7.73
2018-12-26T03:11:56.851Z,5.67
2018-12-26T03:14:27.453Z,5.07
2018-12-26T03:16:58.238Z,5.20
2018-12-26T03:19:28.731Z,5.77
2018-12-26T03:21:59.564Z,5.33
2018-12-26T03:24:30.035Z,5.50
2018-12-26T03:27:01.681Z,5.63
2018-12-26T03:29:32.073Z,5.60
2018-12-26T03:32:02.735Z,5.83
2018-12-26T03:34:33.276Z,5.13
2018-12-26T03:37:03.890Z,9.03
2018-12-26T03:39:34.447Z,9.97
2018-12-26T03:42:05.169Z,7.00
2018-12-26T03:44:36.806Z,6.50
2018-12-26T03:47:09.364Z,6.43
2018-12-26T03:49:40.018Z,4.80
2018-12-26T03:52:10.610Z,5.10
2018-12-26T03:54:41.214Z,4.57
2018-12-26T03:57:12.335Z,6.57
2018-12-26T03:59:42.898Z,4.60
2018-12-26T04:02:13.538Z,11.63
2018-12-26T04:04:44.303Z,6.87
2018-12-26T04:07:14.933Z,5.30
2018-12-26T04:09:45.564Z,5.17
2018-12-26T04:12:16.033Z,4.97
2018-12-26T04:14:46.684Z,7.77
2018-12-26T04:17:17.590Z,6.17
2018-12-26T04:19:48.199Z,7.57
2018-12-26T04:22:18.761Z,6.57
2018-12-26T04:24:50.373Z,9.40
2018-12-26T04:27:21.042Z,4.33
2018-12-26T04:29:51.416Z,5.13
2018-12-26T04:32:21.833Z,4.63
2018-12-26T04:34:52.317Z,5.17
2018-12-26T04:37:22.734Z,7.27
2018-12-26T04:39:53.241Z,6.30
2018-12-26T04:42:23.626Z,6.07
2018-12-26T04:44:54.214Z,5.60
2018-12-26T04:47:24.628Z,6.40
2018-12-26T04:49:55.365Z,5.67
2018-12-26T04:52:25.819Z,7.27
2018-12-26T04:54:56.478Z,4.70
2018-12-26T04:57:26.980Z,5.83
2018-12-26T04:59:57.485Z,3.97
2018-12-26T05:02:28.066Z,4.10
2018-12-26T05:04:58.555Z,5.67
2018-12-26T05:07:29.047Z,5.40
2018-12-26T05:09:59.624Z,6.47
2018-12-26T05:12:30.252Z,5.73
2018-12-26T05:15:00.817Z,6.20
2018-12-26T05:17:31.535Z,4.97
2018-12-26T05:20:02.419Z,4.63
2018-12-26T05:22:32.941Z,7.43
2018-12-26T05:25:03.588Z,6.07
2018-12-26T05:27:34.611Z,4.03
2018-12-26T05:30:07.387Z,6.57
2018-12-26T05:32:37.912Z,4.53
2018-12-26T05:35:09.501Z,7.07
2018-12-26T05:37:39.979Z,6.77
2018-12-26T05:40:10.421Z,4.97
2018-12-26T05:42:40.821Z,5.73
2018-12-26T05:45:11.295Z,3.87
2018-12-26T05:47:41.825Z,4.17
2018-12-26T05:50:12.718Z,5.10
2018-12-26T05:52:43.165Z,7.43
2018-12-26T05:55:13.576Z,5.10
2018-12-26T05:57:43.961Z,7.80
2018-12-26T06:00:14.482Z,5.67
2018-12-26T06:02:44.927Z,5.23
2018-12-26T06:05:15.408Z,6.27
2018-12-26T06:07:45.956Z,5.10
2018-12-26T06:10:16.471Z,8.67
2018-12-26T06:12:47.024Z,5.00
2018-12-26T06:15:17.455Z,4.30
2018-12-26T06:17:47.900Z,3.60
2018-12-26T06:20:18.559Z,6.03
2018-12-26T06:22:49.049Z,4.33
2018-12-26T06:25:19.449Z,3.97
2018-12-26T06:27:51.614Z,6.07
2018-12-26T06:30:22.305Z,4.40
2018-12-26T06:32:52.748Z,4.80
2018-12-26T06:35:23.189Z,4.13
2018-12-26T06:37:53.662Z,7.53
2018-12-26T06:40:24.226Z,5.03
2018-12-26T06:42:54.621Z,7.03
2018-12-26T06:45:25.102Z,4.10
2018-12-26T06:47:56.197Z,4.27
2018-12-26T06:50:26.765Z,7.20
2018-12-26T06:52:57.322Z,4.37
2018-12-26T06:55:27.875Z,5.53
2018-12-26T06:58:00.289Z,6.03
2018-12-26T07:00:30.704Z,4.80
2018-12-26T07:03:01.275Z,4.47
2018-12-26T07:05:31.738Z,4.40
2018-12-26T07:08:02.191Z,4.33
2018-12-26T07:10:32.715Z,6.03
2018-12-26T07:13:03.262Z,7.37
2018-12-26T07:15:33.794Z,5.83
2018-12-26T07:18:05.287Z,4.43
2018-12-26T07:20:39.512Z,5.37
2018-12-26T07:23:10.402Z,3.90
2018-12-26T07:25:40.935Z,7.27
2018-12-26T07:28:12.610Z,5.90
2018-12-26T07:30:43.009Z,6.47
2018-12-26T07:33:13.455Z,5.97
2018-12-26T07:35:43.947Z,5.40
2018-12-26T07:38:14.607Z,6.03
2018-12-26T07:40:48.429Z,12.33
2018-12-26T07:43:18.981Z,4.60
2018-12-26T07:45:49.520Z,4.73
2018-12-26T07:48:20.050Z,4.10
2018-12-26T07:50:50.687Z,5.10
2018-12-26T07:53:21.934Z,4.90
2018-12-26T07:55:52.724Z,6.57
2018-12-26T07:58:24.200Z,5.47
2018-12-26T08:00:54.948Z,6.87
2018-12-26T08:03:25.534Z,8.00
2018-12-26T08:05:56.473Z,6.20
2018-12-26T08:08:27.100Z,7.03
2018-12-26T08:10:57.508Z,9.57
2018-12-26T08:13:30.174Z,5.83
2018-12-26T08:16:03.542Z,7.43
2018-12-26T08:18:34.526Z,6.33
2018-12-26T08:21:05.061Z,7.70
2018-12-26T08:23:55.935Z,7.60
2018-12-26T08:26:26.753Z,6.57
2018-12-26T08:28:57.343Z,6.47
2018-12-26T08:31:27.904Z,6.60
2018-12-26T08:33:59.441Z,9.03
2018-12-26T08:36:30.046Z,6.47
2018-12-26T08:39:00.540Z,6.23
2018-12-26T08:41:31.127Z,9.30
2018-12-26T08:44:01.827Z,7.20
2018-12-26T08:46:32.492Z,8.60
2018-12-26T08:49:03.195Z,7.43
2018-12-26T08:51:33.706Z,7.87
2018-12-26T08:54:05.274Z,9.57
2018-12-26T08:56:37.724Z,7.67
2018-12-26T08:59:08.557Z,7.30
2018-12-26T09:01:39.168Z,7.83
2018-12-26T09:04:10.942Z,6.73
2018-12-26T09:06:41.557Z,9.17
2018-12-26T09:09:12.260Z,6.20
2018-12-26T09:11:42.788Z,7.17
2018-12-26T09:14:14.183Z,6.77
2018-12-26T09:16:44.659Z,8.07
2018-12-26T09:19:16.309Z,7.10
2018-12-26T09:21:48.265Z,8.57
2018-12-26T09:24:18.975Z,7.37
2018-12-26T09:26:49.501Z,6.93
2018-12-26T09:29:20.264Z,7.30
2018-12-26T09:31:51.076Z,9.10
2018-12-26T09:34:22.152Z,6.77
2018-12-26T09:36:52.857Z,9.37
2018-12-26T09:39:23.449Z,9.80
2018-12-26T09:41:58.153Z,7.90
2018-12-26T09:44:31.243Z,9.00
2018-12-26T09:47:03.044Z,13.07
2018-12-26T09:49:33.910Z,8.40
2018-12-26T09:52:04.553Z,7.20
2018-12-26T09:54:35.225Z,7.87
2018-12-26T09:57:06.387Z,9.80
2018-12-26T09:59:38.986Z,10.27
2018-12-26T10:02:12.409Z,8.97
2018-12-26T10:04:41.861Z,9.23
2018-12-26T10:07:14.316Z,11.50
2018-12-26T10:09:45.810Z,9.63
2018-12-26T10:12:16.669Z,9.13
2018-12-26T10:14:50.824Z,9.50
2018-12-26T10:17:21.620Z,8.77
2018-12-26T10:19:54.038Z,7.43
2018-12-26T10:22:24.605Z,7.23
2018-12-26T10:24:55.649Z,8.27
2018-12-26T10:27:26.153Z,8.00
2018-12-26T10:29:56.800Z,8.83
2018-12-26T10:32:27.685Z,8.93
2018-12-26T10:35:02.162Z,10.93
2018-12-26T10:37:32.856Z,8.33
2018-12-26T10:40:03.768Z,10.50
2018-12-26T10:42:34.581Z,8.97
2018-12-26T10:45:06.986Z,7.87
2018-12-26T10:47:37.537Z,9.43
2018-12-26T10:50:13.539Z,9.70
2018-12-26T10:52:44.153Z,13.30
2018-12-26T10:55:14.802Z,10.33
2018-12-26T10:57:45.470Z,8.93
2018-12-26T11:00:16.504Z,10.63
2018-12-26T11:02:47.111Z,11.13
2018-12-26T11:05:19.162Z,9.83
2018-12-26T11:07:49.791Z,8.90
2018-12-26T11:10:20.366Z,12.37
2018-12-26T11:12:50.823Z,11.43
2018-12-26T11:15:21.393Z,9.07
2018-12-26T11:17:53.154Z,9.03
2018-12-26T11:20:24.063Z,9.00
2018-12-26T11:22:56.091Z,8.37
2018-12-26T11:25:27.072Z,7.47
2018-12-26T11:27:57.622Z,10.57
2018-12-26T11:30:28.086Z,7.87
2018-12-26T11:32:58.595Z,8.60
2018-12-26T11:35:29.323Z,8.40
2018-12-26T11:37:59.987Z,9.73
2018-12-26T11:40:30.516Z,9.30
2018-12-26T11:43:01.137Z,8.03
2018-12-26T11:45:31.753Z,7.47
2018-12-26T11:48:02.372Z,9.30
2018-12-26T11:50:33.193Z,10.13
2018-12-26T11:53:03.660Z,7.33
2018-12-26T11:55:34.592Z,8.30
2018-12-26T11:58:05.290Z,12.10
2018-12-26T12:00:35.813Z,7.50
2018-12-26T12:03:08.559Z,7.50
2018-12-26T12:05:39.686Z,8.93
2018-12-26T12:08:10.287Z,8.90
2018-12-26T12:10:40.895Z,10.33
2018-12-26T12:13:11.422Z,13.80
2018-12-26T12:15:42.465Z,11.57
2018-12-26T12:18:12.976Z,12.17
2018-12-26T12:20:43.887Z,10.63
2018-12-26T12:23:14.423Z,9.80
2018-12-26T12:25:45.015Z,9.20
2018-12-26T12:28:15.486Z,10.00
2018-12-26T12:30:47.111Z,11.00
2018-12-26T12:33:17.846Z,9.93
2018-12-26T12:38:24.642Z,9.13
2018-12-26T12:40:55.287Z,10.37
2018-12-26T12:43:26.082Z,9.83
2018-12-26T12:45:57.993Z,12.90
2018-12-26T12:48:30.118Z,8.47
2018-12-26T12:51:00.868Z,9.23
2018-12-26T12:53:34.855Z,10.13
2018-12-26T12:56:11.717Z,10.63
2018-12-26T12:58:38.443Z,8.30
2018-12-26T13:01:09.105Z,9.70
2018-12-26T13:03:46.493Z,7.53
2018-12-26T13:06:13.106Z,10.67
2018-12-26T13:08:43.675Z,8.20
2018-12-26T13:11:14.230Z,7.47
2018-12-26T13:13:44.878Z,9.90
2018-12-26T13:16:16.423Z,7.33
2018-12-26T13:18:46.903Z,7.93
2018-12-26T13:21:17.619Z,9.50
2018-12-26T13:23:48.192Z,10.20
2018-12-26T13:26:18.822Z,8.30
2018-12-26T13:28:49.519Z,10.93
2018-12-26T13:31:20.122Z,17.53
2018-12-26T13:33:51.122Z,10.97
2018-12-26T13:36:21.813Z,9.23
2018-12-26T13:38:52.455Z,11.50
2018-12-26T13:41:22.975Z,7.23
2018-12-26T13:43:55.000Z,7.73
2018-12-26T13:46:33.545Z,8.17
2018-12-26T13:48:57.874Z,9.60
2018-12-26T13:51:28.399Z,7.37
2018-12-26T13:54:03.493Z,8.33
2018-12-26T13:56:34.025Z,9.73
2018-12-26T13:59:06.550Z,7.90
2018-12-26T14:01:37.103Z,7.43
2018-12-26T14:04:07.543Z,9.17
2018-12-26T14:06:38.330Z,7.60
2018-12-26T14:09:10.860Z,9.90
2018-12-26T14:11:41.937Z,13.00
2018-12-26T14:14:12.416Z,9.00
2018-12-26T14:16:43.104Z,6.80
2018-12-26T14:19:13.642Z,9.63
2018-12-26T14:21:44.235Z,7.40
2018-12-26T14:24:14.801Z,6.60
2018-12-26T14:26:45.198Z,9.40
2018-12-26T14:29:15.623Z,7.83
2018-12-26T14:31:46.070Z,7.73
2018-12-26T14:34:16.674Z,7.80
2018-12-26T14:36:47.421Z,7.33
2018-12-26T14:39:19.091Z,11.53
2018-12-26T14:41:49.493Z,8.43
2018-12-26T14:44:20.033Z,8.20
2018-12-26T14:46:50.639Z,9.00
2018-12-26T14:49:21.167Z,8.10
2018-12-26T14:51:52.040Z,8.17
2018-12-26T14:54:22.556Z,11.03
2018-12-26T14:56:53.112Z,10.90
2018-12-26T14:59:23.752Z,9.13
2018-12-26T15:01:54.291Z,8.53
2018-12-26T15:04:25.431Z,8.13
2018-12-26T15:06:55.999Z,9.17
2018-12-26T15:09:26.688Z,10.60
2018-12-26T15:11:57.221Z,9.03
2018-12-26T15:14:27.671Z,9.77
2018-12-26T15:16:58.164Z,7.93
2018-12-26T15:19:28.744Z,11.00
2018-12-26T15:21:59.169Z,13.33
2018-12-26T15:24:29.697Z,9.20
2018-12-26T15:27:00.481Z,13.80
2018-12-26T15:29:30.960Z,12.30
2018-12-26T15:32:01.595Z,10.57
2018-12-26T15:34:33.278Z,9.57
2018-12-26T15:37:04.303Z,14.30
2018-12-26T15:39:34.974Z,11.90
2018-12-26T15:42:06.551Z,11.73
2018-12-26T15:44:36.954Z,10.03
2018-12-26T15:47:07.569Z,12.73
2018-12-26T15:49:38.122Z,11.90
2018-12-26T15:52:08.596Z,10.67
2018-12-26T15:54:39.233Z,11.03
2018-12-26T15:57:09.691Z,11.10
2018-12-26T15:59:40.519Z,11.60
2018-12-26T16:02:11.177Z,11.00
2018-12-26T16:04:41.717Z,12.67
2018-12-26T16:07:12.249Z,10.83
2018-12-26T16:09:42.710Z,11.03
2018-12-26T16:12:13.154Z,10.30
2018-12-26T16:14:43.763Z,11.07
2018-12-26T16:17:14.354Z,10.40
2018-12-26T16:19:44.971Z,10.40
2018-12-26T16:22:15.471Z,8.80
2018-12-26T16:24:46.337Z,11.27
2018-12-26T16:27:16.878Z,14.17
2018-12-26T16:29:47.964Z,8.33
2018-12-26T16:32:18.567Z,12.73
2018-12-26T16:34:49.196Z,10.20
2018-12-26T16:37:19.671Z,10.17
2018-12-26T16:39:50.083Z,10.93
2018-12-26T16:42:20.652Z,9.83
2018-12-26T16:44:51.364Z,10.57
2018-12-26T16:47:23.368Z,11.37
2018-12-26T16:49:54.077Z,13.87
2018-12-26T16:52:24.482Z,15.23
2018-12-26T16:54:55.047Z,11.60
2018-12-26T16:57:25.589Z,12.60
2018-12-26T16:59:56.306Z,13.30
2018-12-26T17:02:26.759Z,13.80
2018-12-26T17:04:57.984Z,11.40
2018-12-26T17:07:28.539Z,9.73
2018-12-26T17:09:59.113Z,9.13
2018-12-26T17:12:29.629Z,10.17
2018-12-26T17:15:00.804Z,12.13
2018-12-26T17:17:33.230Z,12.10
2018-12-26T17:20:04.677Z,12.57
2018-12-26T17:22:35.250Z,28.97
2018-12-26T17:25:06.585Z,14.07
2018-12-26T17:27:37.431Z,12.07
2018-12-26T17:30:11.132Z,13.47
2018-12-26T17:32:41.696Z,13.70
2018-12-26T17:35:12.210Z,12.67
2018-12-26T17:37:42.769Z,12.50
2018-12-26T17:40:13.599Z,12.27
2018-12-26T17:42:44.051Z,11.17
2018-12-26T17:45:19.103Z,12.50
2018-12-26T17:47:49.504Z,13.97
2018-12-26T17:50:42.261Z,14.27
2018-12-26T17:53:26.499Z,13.27
2018-12-26T17:56:10.062Z,11.70
2018-12-26T17:58:45.075Z,10.93
2018-12-26T18:01:39.611Z,15.50
2018-12-26T18:04:10.191Z,12.27
2018-12-26T18:06:41.172Z,11.27
2018-12-26T18:09:11.591Z,11.40
2018-12-26T18:11:42.747Z,12.00
2018-12-26T18:14:13.265Z,11.27
2018-12-26T18:16:43.837Z,9.27
2018-12-26T18:19:14.226Z,10.10
2018-12-26T18:21:44.783Z,14.17
2018-12-26T18:24:16.004Z,11.50
2018-12-26T18:26:47.499Z,12.37
2018-12-26T18:29:17.898Z,9.70
2018-12-26T18:31:48.684Z,11.10
2018-12-26T18:34:19.145Z,11.57
2018-12-26T18:36:49.648Z,10.67
2018-12-26T18:39:23.254Z,11.57
2018-12-26T18:41:56.402Z,11.70
2018-12-26T18:44:26.846Z,13.10
2018-12-26T18:46:57.363Z,12.40
2018-12-26T18:49:27.953Z,13.17
2018-12-26T18:51:58.557Z,13.90
2018-12-26T18:54:29.040Z,13.47
2018-12-26T18:56:59.468Z,15.83
2018-12-26T18:59:29.990Z,12.97
2018-12-26T19:02:02.031Z,10.53
2018-12-26T19:04:32.737Z,12.83
2018-12-26T19:07:04.562Z,15.57
2018-12-26T19:09:34.987Z,13.50
2018-12-26T19:12:05.621Z,12.67
2018-12-26T19:14:36.138Z,12.87
2018-12-26T19:17:06.892Z,15.70
2018-12-26T19:19:43.493Z,16.13
2018-12-26T19:22:13.968Z,13.23
2018-12-26T19:24:45.395Z,12.47
2018-12-26T19:27:16.068Z,12.17
2018-12-26T19:29:46.656Z,13.57
2018-12-26T19:32:18.814Z,14.87
2018-12-26T19:34:49.920Z,14.63
2018-12-26T19:37:20.554Z,12.93
2018-12-26T19:39:51.104Z,13.97
2018-12-26T19:42:21.560Z,11.80
2018-12-26T19:44:52.172Z,12.07
2018-12-26T19:47:22.583Z,12.33
2018-12-26T19:49:53.161Z,12.10
2018-12-26T19:52:23.630Z,11.50
2018-12-26T19:54:56.566Z,11.80
2018-12-26T19:57:27.108Z,11.60
2018-12-26T19:59:57.712Z,12.10
2018-12-26T20:02:28.213Z,11.70
2018-12-26T20:04:59.079Z,16.57
2018-12-26T20:07:29.805Z,13.47
2018-12-26T20:10:00.887Z,13.77
2018-12-26T20:12:32.908Z,13.10
2018-12-26T20:15:03.481Z,13.27
2018-12-26T20:17:35.031Z,13.13
2018-12-26T20:20:08.047Z,14.23
2018-12-26T20:22:38.469Z,16.20
2018-12-26T20:25:09.348Z,12.37
2018-12-26T20:27:39.820Z,12.00
2018-12-26T20:30:10.448Z,13.37
2018-12-26T20:32:42.541Z,12.57
2018-12-26T20:35:13.175Z,13.80
2018-12-26T20:37:43.981Z,13.97
2018-12-26T20:40:14.494Z,14.23
2018-12-26T20:42:45.307Z,13.97
2018-12-26T20:45:15.894Z,14.97
2018-12-26T20:47:46.756Z,16.20
2018-12-26T20:50:17.520Z,13.53
2018-12-26T20:52:48.023Z,13.00
2018-12-26T20:55:18.469Z,15.13
2018-12-26T20:57:48.944Z,14.50
2018-12-26T21:00:19.486Z,14.93
2018-12-26T21:02:49.974Z,15.20
2018-12-26T21:05:20.533Z,14.63
2018-12-26T21:07:51.414Z,13.40
2018-12-26T21:10:22.991Z,14.17
2018-12-26T21:12:53.380Z,14.30
2018-12-26T21:15:24.047Z,13.87
2018-12-26T21:17:54.607Z,13.40
2018-12-26T21:20:25.082Z,13.87
2018-12-26T21:22:56.296Z,13.60
2018-12-26T21:25:26.859Z,12.20
2018-12-26T21:27:57.304Z,11.90
2018-12-26T21:30:27.819Z,15.93
2018-12-26T21:32:58.291Z,12.20
2018-12-26T21:35:28.730Z,12.00
2018-12-26T21:37:59.456Z,13.20
2018-12-26T21:40:29.876Z,11.37
2018-12-26T21:43:00.333Z,12.53
2018-12-26T21:45:30.906Z,11.33
2018-12-26T21:48:01.448Z,12.53
2018-12-26T21:50:32.129Z,11.83
2018-12-26T21:53:02.582Z,14.33
2018-12-26T21:55:33.109Z,11.00
2018-12-26T21:58:03.763Z,13.40
2018-12-26T22:00:34.422Z,12.87
2018-12-26T22:03:05.166Z,12.77
2018-12-26T22:05:35.674Z,9.60
2018-12-26T22:08:06.394Z,11.13
2018-12-26T22:10:36.847Z,11.87
2018-12-26T22:13:07.264Z,12.43
2018-12-26T22:15:37.721Z,12.40
2018-12-26T22:18:08.320Z,14.27
2018-12-26T22:20:38.767Z,13.07
2018-12-26T22:23:09.305Z,11.70
2018-12-26T22:25:39.834Z,11.83
2018-12-26T22:28:10.356Z,12.17
2018-12-26T22:30:40.829Z,11.77
2018-12-26T22:33:11.478Z,12.40
2018-12-26T22:35:41.928Z,12.47
2018-12-26T22:38:13.209Z,11.93
2018-12-26T22:40:43.771Z,14.40
2018-12-26T22:43:14.634Z,12.80
2018-12-26T22:45:45.158Z,10.67
2018-12-26T22:48:15.653Z,13.23
2018-12-26T22:50:46.263Z,13.07
2018-12-26T22:53:16.900Z,11.93
2018-12-26T22:55:47.350Z,14.80
2018-12-26T22:58:17.939Z,13.70
2018-12-26T23:00:48.763Z,13.27
2018-12-26T23:03:19.212Z,13.53
2018-12-26T23:05:49.989Z,13.07
2018-12-26T23:08:20.744Z,11.93
2018-12-26T23:10:51.266Z,13.00
2018-12-26T23:13:21.767Z,15.40
2018-12-26T23:15:52.323Z,13.90
2018-12-26T23:18:22.852Z,11.77
2018-12-26T23:20:53.393Z,11.93
2018-12-26T23:23:23.854Z,13.30
2018-12-26T23:25:56.017Z,14.67
2018-12-26T23:28:26.489Z,15.27
2018-12-26T23:30:57.687Z,17.43
2018-12-26T23:33:28.181Z,15.80
2018-12-26T23:35:58.636Z,13.23
2018-12-26T23:38:29.423Z,13.37
2018-12-26T23:40:59.955Z,15.23
2018-12-26T23:43:30.408Z,14.57
2018-12-26T23:46:00.917Z,14.40
2018-12-26T23:48:31.341Z,16.03
2018-12-26T23:51:01.793Z,20.10
2018-12-26T23:53:32.401Z,14.87
2018-12-26T23:56:03.047Z,14.97
2018-12-26T23:58:33.561Z,15.57
